Weather at Frontier Airpark

Public forecast

Using degrees Fahrenheit for public forecast. Weather courtesy of forecast.io.

Closest aviation weather report (METAR) to Frontier Airpark

Closest report is Arlington Municipal Airport, 4.9 nm (9.1 km) NW. Retrieved 2021/07/30 00:56 UTC (18 minutes ago):

KAWO 300056Z AUTO 31014KT 10SM 29/14 A2998 RMK AO2 SLP156 T02890139

Closest aviation forecast (TAF) to Frontier Airpark

Closest forecast is Snohomish County (Paine Field) Airport, 15.1 nm (28.0 km) SW. Retrieved 2021-07-30 00:22 UTC (52 minutes ago):

TAF KPAE 292320Z 3000/3024 36008KT P6SM SKC FM300600 02004KT P6SM SKC